sensor_id;sensor_type;location;lat;lon;timestamp;pressure;altitude;pressure_sealevel;temperature;humidity
5283;BME280;15376;48.540;9.268;2023-03-16T00:02:23;97890.19;;;-0.72;100.00
5283;BME280;15376;48.540;9.268;2023-03-16T00:04:49;97874.34;;;-0.94;100.00
5283;BME280;15376;48.540;9.268;2023-03-16T00:07:14;97888.31;;;-0.95;100.00
5283;BME280;15376;48.540;9.268;2023-03-16T00:09:40;97885.56;;;-1.07;100.00
5283;BME280;15376;48.540;9.268;2023-03-16T00:12:13;97887.97;;;-1.04;100.00
5283;BME280;15376;48.540;9.268;2023-03-16T00:14:49;97878.19;;;-1.00;100.00
5283;BME280;15376;48.540;9.268;2023-03-16T00:17:16;97886.28;;;-1.05;100.00
5283;BME280;15376;48.540;9.268;2023-03-16T00:22:11;97879.06;;;-1.26;100.00
5283;BME280;15376;48.540;9.268;2023-03-16T00:24:39;97875.63;;;-1.27;100.00
5283;BME280;15376;48.540;9.268;2023-03-16T00:27:08;97891.41;;;-1.43;100.00
5283;BME280;15376;48.540;9.268;2023-03-16T00:29:34;97892.00;;;-1.52;100.00
5283;BME280;15376;48.540;9.268;2023-03-16T00:32:00;97877.84;;;-1.48;100.00
5283;BME280;15376;48.540;9.268;2023-03-16T00:34:25;97895.44;;;-1.24;100.00
5283;BME280;15376;48.540;9.268;2023-03-16T00:36:54;97896.00;;;-1.07;100.00
5283;BME280;15376;48.540;9.268;2023-03-16T00:39:19;97901.53;;;-0.98;100.00
5283;BME280;15376;48.540;9.268;2023-03-16T00:41:44;97911.38;;;-0.89;100.00
5283;BME280;15376;48.540;9.268;2023-03-16T00:44:10;97895.50;;;-0.99;100.00
5283;BME280;15376;48.540;9.268;2023-03-16T00:46:36;97898.97;;;-0.86;100.00
5283;BME280;15376;48.540;9.268;2023-03-16T00:49:01;97909.06;;;-0.94;100.00
5283;BME280;15376;48.540;9.268;2023-03-16T00:51:27;97896.09;;;-1.08;100.00
5283;BME280;15376;48.540;9.268;2023-03-16T00:53:52;97887.72;;;-1.26;100.00
5283;BME280;15376;48.540;9.268;2023-03-16T00:56:17;97906.69;;;-1.24;100.00
5283;BME280;15376;48.540;9.268;2023-03-16T00:58:43;97901.69;;;-1.27;100.00
5283;BME280;15376;48.540;9.268;2023-03-16T01:01:14;97885.00;;;-1.24;100.00
5283;BME280;15376;48.540;9.268;2023-03-16T01:03:40;97885.00;;;-1.24;100.00
5283;BME280;15376;48.540;9.268;2023-03-16T01:06:08;97888.97;;;-1.19;100.00
5283;BME280;15376;48.540;9.268;2023-03-16T01:08:34;97887.28;;;-1.20;100.00
5283;BME280;15376;48.540;9.268;2023-03-16T01:11:21;97894.16;;;-1.31;100.00
5283;BME280;15376;48.540;9.268;2023-03-16T01:13:48;97894.78;;;-1.28;100.00
5283;BME280;15376;48.540;9.268;2023-03-16T01:16:15;97897.59;;;-1.31;100.00
5283;BME280;15376;48.540;9.268;2023-03-16T01:18:43;97900.13;;;-1.17;100.00
5283;BME280;15376;48.540;9.268;2023-03-16T01:21:09;97886.94;;;-1.41;100.00
5283;BME280;15376;48.540;9.268;2023-03-16T01:23:38;97892.25;;;-1.69;100.00
5283;BME280;15376;48.540;9.268;2023-03-16T01:26:03;97890.84;;;-1.48;100.00
5283;BME280;15376;48.540;9.268;2023-03-16T01:28:31;97885.34;;;-1.43;100.00
5283;BME280;15376;48.540;9.268;2023-03-16T01:31:06;97895.78;;;-1.43;100.00
5283;BME280;15376;48.540;9.268;2023-03-16T01:33:34;97883.59;;;-1.70;100.00
5283;BME280;15376;48.540;9.268;2023-03-16T01:36:14;97887.59;;;-1.64;100.00
5283;BME280;15376;48.540;9.268;2023-03-16T01:38:40;97891.69;;;-1.47;100.00
5283;BME280;15376;48.540;9.268;2023-03-16T01:41:06;97891.34;;;-1.55;100.00
5283;BME280;15376;48.540;9.268;2023-03-16T01:43:34;97891.16;;;-1.52;100.00
5283;BME280;15376;48.540;9.268;2023-03-16T01:48:36;97862.66;;;-1.41;100.00
5283;BME280;15376;48.540;9.268;2023-03-16T01:51:09;97880.31;;;-1.32;100.00
5283;BME280;15376;48.540;9.268;2023-03-16T01:53:37;97873.28;;;-1.44;100.00
5283;BME280;15376;48.540;9.268;2023-03-16T01:56:06;97876.81;;;-1.45;100.00
5283;BME280;15376;48.540;9.268;2023-03-16T01:58:34;97865.41;;;-1.30;100.00
5283;BME280;15376;48.540;9.268;2023-03-16T02:01:01;97859.91;;;-1.52;100.00
5283;BME280;15376;48.540;9.268;2023-03-16T02:03:28;97874.88;;;-1.56;100.00
5283;BME280;15376;48.540;9.268;2023-03-16T02:05:58;97868.66;;;-1.53;100.00
5283;BME280;15376;48.540;9.268;2023-03-16T02:08:26;97874.03;;;-1.69;100.00
5283;BME280;15376;48.540;9.268;2023-03-16T02:10:52;97859.63;;;-1.75;100.00
5283;BME280;15376;48.540;9.268;2023-03-16T02:13:21;97859.81;;;-1.78;100.00
5283;BME280;15376;48.540;9.268;2023-03-16T02:15:48;97854.03;;;-1.69;100.00
5283;BME280;15376;48.540;9.268;2023-03-16T02:18:13;97861.03;;;-1.56;100.00
5283;BME280;15376;48.540;9.268;2023-03-16T02:20:49;97839.09;;;-1.79;100.00
5283;BME280;15376;48.540;9.268;2023-03-16T02:23:18;97842.72;;;-1.82;100.00
5283;BME280;15376;48.540;9.268;2023-03-16T02:28:48;97850.31;;;-2.06;100.00
5283;BME280;15376;48.540;9.268;2023-03-16T02:31:18;97828.13;;;-1.84;100.00
5283;BME280;15376;48.540;9.268;2023-03-16T02:33:45;97826.00;;;-1.92;100.00
5283;BME280;15376;48.540;9.268;2023-03-16T02:36:16;97822.03;;;-1.97;100.00
5283;BME280;15376;48.540;9.268;2023-03-16T02:38:42;97822.75;;;-1.95;100.00
5283;BME280;15376;48.540;9.268;2023-03-16T02:41:16;97806.47;;;-1.85;100.00
5283;BME280;15376;48.540;9.268;2023-03-16T02:43:59;97820.66;;;-1.76;100.00
5283;BME280;15376;48.540;9.268;2023-03-16T02:46:27;97835.66;;;-1.80;100.00
5283;BME280;15376;48.540;9.268;2023-03-16T02:49:04;97812.56;;;-1.72;100.00
5283;BME280;15376;48.540;9.268;2023-03-16T02:51:30;97841.88;;;-1.82;100.00
5283;BME280;15376;48.540;9.268;2023-03-16T02:53:56;97838.84;;;-1.62;100.00
5283;BME280;15376;48.540;9.268;2023-03-16T02:56:22;97834.25;;;-1.58;100.00
5283;BME280;15376;48.540;9.268;2023-03-16T02:58:47;97839.09;;;-1.79;100.00
5283;BME280;15376;48.540;9.268;2023-03-16T03:01:12;97837.69;;;-1.85;100.00
5283;BME280;15376;48.540;9.268;2023-03-16T03:03:38;97829.72;;;-1.96;100.00
5283;BME280;15376;48.540;9.268;2023-03-16T03:06:04;97841.28;;;-2.00;100.00
5283;BME280;15376;48.540;9.268;2023-03-16T03:08:29;97845.25;;;-1.94;100.00
5283;BME280;15376;48.540;9.268;2023-03-16T03:10:57;97832.28;;;-2.09;100.00
5283;BME280;15376;48.540;9.268;2023-03-16T03:13:22;97818.09;;;-2.31;100.00
5283;BME280;15376;48.540;9.268;2023-03-16T03:15:48;97818.84;;;-2.15;100.00
5283;BME280;15376;48.540;9.268;2023-03-16T03:18:13;97777.09;;;-2.41;100.00
5283;BME280;15376;48.540;9.268;2023-03-16T03:20:39;97821.72;;;-2.20;100.00
5283;BME280;15376;48.540;9.268;2023-03-16T03:23:04;97811.19;;;-2.45;100.00
5283;BME280;15376;48.540;9.268;2023-03-16T03:25:30;97814.94;;;-2.37;100.00
5283;BME280;15376;48.540;9.268;2023-03-16T03:27:58;97812.34;;;-2.22;100.00
5283;BME280;15376;48.540;9.268;2023-03-16T03:30:25;97809.19;;;-2.27;100.00
5283;BME280;15376;48.540;9.268;2023-03-16T03:32:51;97803.06;;;-2.26;100.00
5283;BME280;15376;48.540;9.268;2023-03-16T03:35:17;97812.88;;;-2.17;100.00
5283;BME280;15376;48.540;9.268;2023-03-16T03:37:42;97805.28;;;-2.20;100.00
5283;BME280;15376;48.540;9.268;2023-03-16T03:40:10;97813.38;;;-2.25;100.00
5283;BME280;15376;48.540;9.268;2023-03-16T03:42:37;97801.09;;;-2.23;100.00
5283;BME280;15376;48.540;9.268;2023-03-16T03:45:03;97808.25;;;-1.85;100.00
5283;BME280;15376;48.540;9.268;2023-03-16T03:47:29;97801.47;;;-1.88;100.00
5283;BME280;15376;48.540;9.268;2023-03-16T03:49:55;97802.47;;;-2.03;100.00
5283;BME280;15376;48.540;9.268;2023-03-16T03:52:20;97783.41;;;-2.04;100.00
5283;BME280;15376;48.540;9.268;2023-03-16T03:54:45;97793.09;;;-2.06;100.00
5283;BME280;15376;48.540;9.268;2023-03-16T03:57:11;97780.56;;;-2.27;100.00
5283;BME280;15376;48.540;9.268;2023-03-16T03:59:36;97782.03;;;-2.09;100.00
5283;BME280;15376;48.540;9.268;2023-03-16T04:02:07;97786.91;;;-2.31;100.00
5283;BME280;15376;48.540;9.268;2023-03-16T04:04:33;97778.72;;;-2.40;100.00
5283;BME280;15376;48.540;9.268;2023-03-16T04:06:58;97793.59;;;-2.27;100.00
5283;BME280;15376;48.540;9.268;2023-03-16T04:09:24;97789.47;;;-2.17;100.00
5283;BME280;15376;48.540;9.268;2023-03-16T04:11:50;97782.47;;;-2.44;100.00
5283;BME280;15376;48.540;9.268;2023-03-16T04:14:15;97783.31;;;-2.43;100.00
5283;BME280;15376;48.540;9.268;2023-03-16T04:16:40;97780.63;;;-2.42;100.00
5283;BME280;15376;48.540;9.268;2023-03-16T04:19:09;97788.09;;;-2.37;100.00
5283;BME280;15376;48.540;9.268;2023-03-16T04:21:34;97787.38;;;-2.39;100.00
5283;BME280;15376;48.540;9.268;2023-03-16T04:23:59;97788.84;;;-2.21;100.00
5283;BME280;15376;48.540;9.268;2023-03-16T04:26:25;97777.50;;;-2.20;100.00
5283;BME280;15376;48.540;9.268;2023-03-16T04:28:50;97777.78;;;-2.24;100.00
5283;BME280;15376;48.540;9.268;2023-03-16T04:31:17;97780.84;;;-2.18;100.00
5283;BME280;15376;48.540;9.268;2023-03-16T04:33:42;97776.81;;;-2.09;100.00
5283;BME280;15376;48.540;9.268;2023-03-16T04:36:08;97765.72;;;-2.25;100.00
5283;BME280;15376;48.540;9.268;2023-03-16T04:38:33;97757.69;;;-2.49;100.00
5283;BME280;15376;48.540;9.268;2023-03-16T04:41:00;97762.63;;;-2.45;100.00
5283;BME280;15376;48.540;9.268;2023-03-16T04:43:25;97762.91;;;-2.49;100.00
5283;BME280;15376;48.540;9.268;2023-03-16T04:45:51;97774.78;;;-2.59;100.00
5283;BME280;15376;48.540;9.268;2023-03-16T04:48:17;97767.06;;;-2.47;100.00
5283;BME280;15376;48.540;9.268;2023-03-16T04:50:42;97762.63;;;-2.59;100.00
5283;BME280;15376;48.540;9.268;2023-03-16T04:53:08;97756.69;;;-2.75;100.00
5283;BME280;15376;48.540;9.268;2023-03-16T04:55:33;97761.69;;;-2.72;100.00
5283;BME280;15376;48.540;9.268;2023-03-16T04:57:58;97760.97;;;-2.74;100.00
5283;BME280;15376;48.540;9.268;2023-03-16T05:00:24;97762.16;;;-2.65;100.00
5283;BME280;15376;48.540;9.268;2023-03-16T05:02:50;97768.38;;;-2.68;100.00
5283;BME280;15376;48.540;9.268;2023-03-16T05:05:19;97764.31;;;-2.72;100.00
5283;BME280;15376;48.540;9.268;2023-03-16T05:07:45;97761.38;;;-2.80;100.00
5283;BME280;15376;48.540;9.268;2023-03-16T05:10:13;97755.78;;;-2.88;100.00
5283;BME280;15376;48.540;9.268;2023-03-16T05:12:39;97751.59;;;-2.77;100.00
5283;BME280;15376;48.540;9.268;2023-03-16T05:15:05;97770.16;;;-2.69;100.00
5283;BME280;15376;48.540;9.268;2023-03-16T05:17:31;97768.94;;;-2.77;100.00
5283;BME280;15376;48.540;9.268;2023-03-16T05:19:57;97760.69;;;-2.70;100.00
5283;BME280;15376;48.540;9.268;2023-03-16T05:22:22;97755.03;;;-2.76;100.00
5283;BME280;15376;48.540;9.268;2023-03-16T05:24:48;97757.09;;;-2.81;100.00
5283;BME280;15376;48.540;9.268;2023-03-16T05:27:13;97764.22;;;-2.71;100.00
5283;BME280;15376;48.540;9.268;2023-03-16T05:29:39;97756.53;;;-2.86;100.00
5283;BME280;15376;48.540;9.268;2023-03-16T05:32:04;97758.16;;;-2.71;100.00
5283;BME280;15376;48.540;9.268;2023-03-16T05:34:30;97748.72;;;-2.72;100.00
5283;BME280;15376;48.540;9.268;2023-03-16T05:36:56;97746.28;;;-2.75;100.00
5283;BME280;15376;48.540;9.268;2023-03-16T05:39:21;97761.31;;;-2.66;100.00
5283;BME280;15376;48.540;9.268;2023-03-16T05:41:47;97759.84;;;-2.56;100.00
5283;BME280;15376;48.540;9.268;2023-03-16T05:44:12;97763.53;;;-2.46;100.00
5283;BME280;15376;48.540;9.268;2023-03-16T05:46:38;97763.59;;;-2.33;100.00
5283;BME280;15376;48.540;9.268;2023-03-16T05:49:03;97758.78;;;-2.39;100.00
5283;BME280;15376;48.540;9.268;2023-03-16T05:51:28;97766.28;;;-2.35;100.00
5283;BME280;15376;48.540;9.268;2023-03-16T05:53:54;97774.53;;;-2.28;100.00
5283;BME280;15376;48.540;9.268;2023-03-16T05:56:24;97765.72;;;-2.25;100.00
5283;BME280;15376;48.540;9.268;2023-03-16T05:58:54;97774.06;;;-2.20;100.00
5283;BME280;15376;48.540;9.268;2023-03-16T06:01:20;97774.06;;;-2.20;100.00
5283;BME280;15376;48.540;9.268;2023-03-16T06:03:47;97764.19;;;-2.15;100.00
5283;BME280;15376;48.540;9.268;2023-03-16T06:06:14;97757.25;;;-2.29;100.00
5283;BME280;15376;48.540;9.268;2023-03-16T06:08:40;97748.25;;;-2.23;100.00
5283;BME280;15376;48.540;9.268;2023-03-16T06:11:05;97746.75;;;-2.27;100.00
5283;BME280;15376;48.540;9.268;2023-03-16T06:13:31;97757.69;;;-2.08;100.00
5283;BME280;15376;48.540;9.268;2023-03-16T06:15:56;97737.75;;;-2.22;100.00
5283;BME280;15376;48.540;9.268;2023-03-16T06:18:21;97729.50;;;-2.28;100.00
5283;BME280;15376;48.540;9.268;2023-03-16T06:20:46;97746.00;;;-2.15;100.00
5283;BME280;15376;48.540;9.268;2023-03-16T06:23:12;97753.41;;;-2.09;100.00
5283;BME280;15376;48.540;9.268;2023-03-16T06:25:38;97759.81;;;-1.88;100.00
5283;BME280;15376;48.540;9.268;2023-03-16T06:28:04;97758.59;;;-1.82;100.00
5283;BME280;15376;48.540;9.268;2023-03-16T06:30:30;97749.03;;;-1.82;100.00
5283;BME280;15376;48.540;9.268;2023-03-16T06:32:55;97757.56;;;-1.80;100.00
5283;BME280;15376;48.540;9.268;2023-03-16T06:35:21;97752.66;;;-1.84;100.00
5283;BME280;15376;48.540;9.268;2023-03-16T06:37:47;97748.44;;;-1.73;100.00
5283;BME280;15376;48.540;9.268;2023-03-16T06:40:12;97762.41;;;-1.48;100.00
5283;BME280;15376;48.540;9.268;2023-03-16T06:42:38;97749.72;;;-1.40;100.00
5283;BME280;15376;48.540;9.268;2023-03-16T06:45:03;97754.41;;;-1.20;100.00
5283;BME280;15376;48.540;9.268;2023-03-16T06:47:29;97751.19;;;-1.11;100.00
5283;BME280;15376;48.540;9.268;2023-03-16T06:49:54;97757.25;;;-0.85;100.00
5283;BME280;15376;48.540;9.268;2023-03-16T06:52:20;97749.91;;;-0.67;100.00
5283;BME280;15376;48.540;9.268;2023-03-16T06:54:46;97747.41;;;-0.56;100.00
5283;BME280;15376;48.540;9.268;2023-03-16T06:57:11;97757.97;;;-0.34;100.00
5283;BME280;15376;48.540;9.268;2023-03-16T06:59:36;97743.78;;;-0.29;100.00
5283;BME280;15376;48.540;9.268;2023-03-16T07:02:02;97758.56;;;-0.17;100.00
5283;BME280;15376;48.540;9.268;2023-03-16T07:04:27;97738.69;;;-0.07;100.00
5283;BME280;15376;48.540;9.268;2023-03-16T07:06:53;97747.75;;;0.00;100.00
5283;BME280;15376;48.540;9.268;2023-03-16T07:09:18;97745.72;;;0.27;100.00
5283;BME280;15376;48.540;9.268;2023-03-16T07:11:43;97750.19;;;0.49;100.00
5283;BME280;15376;48.540;9.268;2023-03-16T07:14:09;97757.63;;;0.66;100.00
5283;BME280;15376;48.540;9.268;2023-03-16T07:16:35;97723.38;;;0.58;100.00
5283;BME280;15376;48.540;9.268;2023-03-16T07:19:00;97766.53;;;0.64;100.00
5283;BME280;15376;48.540;9.268;2023-03-16T07:21:26;97763.19;;;0.62;100.00
5283;BME280;15376;48.540;9.268;2023-03-16T07:23:51;97758.94;;;0.83;100.00
5283;BME280;15376;48.540;9.268;2023-03-16T07:26:16;97731.16;;;0.93;100.00
5283;BME280;15376;48.540;9.268;2023-03-16T07:28:42;97751.16;;;1.17;100.00
5283;BME280;15376;48.540;9.268;2023-03-16T07:31:07;97729.28;;;1.18;100.00
5283;BME280;15376;48.540;9.268;2023-03-16T07:33:34;97752.13;;;1.38;100.00
5283;BME280;15376;48.540;9.268;2023-03-16T07:36:00;97760.09;;;1.59;100.00
5283;BME280;15376;48.540;9.268;2023-03-16T07:38:30;97756.25;;;1.63;100.00
5283;BME280;15376;48.540;9.268;2023-03-16T07:40:57;97753.28;;;1.67;100.00
5283;BME280;15376;48.540;9.268;2023-03-16T07:43:23;97764.22;;;1.73;100.00
5283;BME280;15376;48.540;9.268;2023-03-16T07:45:49;97736.13;;;1.63;100.00
5283;BME280;15376;48.540;9.268;2023-03-16T07:48:16;97765.38;;;1.91;100.00
5283;BME280;15376;48.540;9.268;2023-03-16T07:50:42;97761.81;;;1.92;100.00
5283;BME280;15376;48.540;9.268;2023-03-16T07:53:07;97759.44;;;1.89;100.00
5283;BME280;15376;48.540;9.268;2023-03-16T07:55:33;97767.34;;;2.10;100.00
5283;BME280;15376;48.540;9.268;2023-03-16T07:58:00;97748.53;;;2.16;100.00
5283;BME280;15376;48.540;9.268;2023-03-16T08:00:26;97762.09;;;2.21;100.00
5283;BME280;15376;48.540;9.268;2023-03-16T08:02:51;97752.19;;;2.24;100.00
5283;BME280;15376;48.540;9.268;2023-03-16T08:05:17;97753.38;;;2.31;100.00
5283;BME280;15376;48.540;9.268;2023-03-16T08:07:43;97743.78;;;2.42;100.00
5283;BME280;15376;48.540;9.268;2023-03-16T08:10:09;97735.06;;;2.20;100.00
5283;BME280;15376;48.540;9.268;2023-03-16T08:12:35;97744.09;;;2.27;100.00
5283;BME280;15376;48.540;9.268;2023-03-16T08:15:01;97743.72;;;2.53;100.00
5283;BME280;15376;48.540;9.268;2023-03-16T08:17:26;97754.38;;;2.72;100.00
5283;BME280;15376;48.540;9.268;2023-03-16T08:19:51;97750.69;;;2.84;100.00
5283;BME280;15376;48.540;9.268;2023-03-16T08:22:17;97757.09;;;2.91;100.00
5283;BME280;15376;48.540;9.268;2023-03-16T08:24:43;97749.16;;;3.03;100.00
5283;BME280;15376;48.540;9.268;2023-03-16T08:27:08;97745.59;;;3.04;100.00
5283;BME280;15376;48.540;9.268;2023-03-16T08:29:33;97752.06;;;3.30;100.00
5283;BME280;15376;48.540;9.268;2023-03-16T08:31:59;97749.06;;;3.34;100.00
5283;BME280;15376;48.540;9.268;2023-03-16T08:34:25;97753.06;;;3.39;100.00
5283;BME280;15376;48.540;9.268;2023-03-16T08:36:51;97739.56;;;3.43;100.00
5283;BME280;15376;48.540;9.268;2023-03-16T08:39:18;97733.13;;;3.57;100.00
5283;BME280;15376;48.540;9.268;2023-03-16T08:41:44;97737.44;;;3.77;100.00
5283;BME280;15376;48.540;9.268;2023-03-16T08:44:11;97726.56;;;3.82;100.00
5283;BME280;15376;48.540;9.268;2023-03-16T08:46:37;97737.13;;;4.30;100.00
5283;BME280;15376;48.540;9.268;2023-03-16T08:49:03;97731.31;;;4.46;100.00
5283;BME280;15376;48.540;9.268;2023-03-16T08:51:28;97718.03;;;4.57;100.00
5283;BME280;15376;48.540;9.268;2023-03-16T08:53:55;97728.69;;;4.75;100.00
5283;BME280;15376;48.540;9.268;2023-03-16T08:56:21;97727.91;;;5.11;100.00
5283;BME280;15376;48.540;9.268;2023-03-16T08:58:46;97724.56;;;5.19;100.00
5283;BME280;15376;48.540;9.268;2023-03-16T09:01:14;97715.31;;;5.42;100.00
5283;BME280;15376;48.540;9.268;2023-03-16T09:03:41;97722.22;;;5.53;100.00
5283;BME280;15376;48.540;9.268;2023-03-16T09:06:11;97713.41;;;5.62;100.00
5283;BME280;15376;48.540;9.268;2023-03-16T09:08:40;97707.91;;;5.83;100.00
5283;BME280;15376;48.540;9.268;2023-03-16T09:11:11;97706.09;;;6.11;99.53
5283;BME280;15376;48.540;9.268;2023-03-16T09:13:37;97683.63;;;6.07;98.62
5283;BME280;15376;48.540;9.268;2023-03-16T09:16:04;97704.13;;;6.48;97.15
5283;BME280;15376;48.540;9.268;2023-03-16T09:18:30;97701.31;;;6.67;97.53
5283;BME280;15376;48.540;9.268;2023-03-16T09:21:00;97690.72;;;6.85;96.97
5283;BME280;15376;48.540;9.268;2023-03-16T09:23:27;97700.38;;;7.54;95.12
5283;BME280;15376;48.540;9.268;2023-03-16T09:25:56;97686.34;;;8.28;90.81
5283;BME280;15376;48.540;9.268;2023-03-16T09:28:24;97705.84;;;9.25;84.95
5283;BME280;15376;48.540;9.268;2023-03-16T09:30:51;97695.88;;;10.13;79.84
5283;BME280;15376;48.540;9.268;2023-03-16T09:33:17;97684.25;;;10.68;76.24
5283;BME280;15376;48.540;9.268;2023-03-16T09:35:43;97682.72;;;10.88;74.71
5283;BME280;15376;48.540;9.268;2023-03-16T09:38:11;97672.88;;;11.70;71.43
5283;BME280;15376;48.540;9.268;2023-03-16T09:40:36;97668.03;;;11.89;69.43
5283;BME280;15376;48.540;9.268;2023-03-16T09:46:04;97677.69;;;14.74;52.68
5283;BME280;15376;48.540;9.268;2023-03-16T09:48:34;97686.28;;;15.35;48.69
5283;BME280;15376;48.540;9.268;2023-03-16T09:51:01;97681.56;;;16.09;45.71
5283;BME280;15376;48.540;9.268;2023-03-16T09:53:31;97662.25;;;17.62;45.22
5283;BME280;15376;48.540;9.268;2023-03-16T09:56:04;97676.72;;;18.16;40.51
5283;BME280;15376;48.540;9.268;2023-03-16T09:58:30;97662.81;;;17.89;40.42
5283;BME280;15376;48.540;9.268;2023-03-16T10:01:22;97664.97;;;16.94;40.56
5283;BME280;15376;48.540;9.268;2023-03-16T10:04:08;97661.75;;;16.16;41.58
5283;BME280;15376;48.540;9.268;2023-03-16T10:06:46;97653.56;;;15.27;41.34
5283;BME280;15376;48.540;9.268;2023-03-16T10:09:34;97650.31;;;14.92;41.28
5283;BME280;15376;48.540;9.268;2023-03-16T10:12:01;97649.84;;;14.29;43.51
5283;BME280;15376;48.540;9.268;2023-03-16T10:14:38;97643.84;;;14.20;43.78
5283;BME280;15376;48.540;9.268;2023-03-16T10:17:25;97647.22;;;14.82;42.85
5283;BME280;15376;48.540;9.268;2023-03-16T10:19:58;97655.69;;;15.89;42.06
5283;BME280;15376;48.540;9.268;2023-03-16T10:22:29;97656.78;;;16.20;39.27
5283;BME280;15376;48.540;9.268;2023-03-16T10:25:03;97656.44;;;16.03;39.06
5283;BME280;15376;48.540;9.268;2023-03-16T10:27:39;97660.69;;;15.79;38.75
5283;BME280;15376;48.540;9.268;2023-03-16T10:32:43;97660.63;;;16.69;37.68
5283;BME280;15376;48.540;9.268;2023-03-16T10:37:36;97642.91;;;17.17;36.43
5283;BME280;15376;48.540;9.268;2023-03-16T10:40:11;97644.78;;;18.08;35.48
5283;BME280;15376;48.540;9.268;2023-03-16T10:42:37;97630.03;;;17.99;34.85
5283;BME280;15376;48.540;9.268;2023-03-16T10:45:04;97643.44;;;17.44;35.47
5283;BME280;15376;48.540;9.268;2023-03-16T10:47:32;97645.66;;;19.04;33.93
5283;BME280;15376;48.540;9.268;2023-03-16T10:49:57;97644.25;;;19.71;32.94
5283;BME280;15376;48.540;9.268;2023-03-16T10:52:33;97646.25;;;19.06;33.07
5283;BME280;15376;48.540;9.268;2023-03-16T10:55:10;97640.38;;;18.85;33.83
5283;BME280;15376;48.540;9.268;2023-03-16T10:57:41;97643.19;;;17.71;33.68
5283;BME280;15376;48.540;9.268;2023-03-16T11:00:18;97634.88;;;17.54;33.79
5283;BME280;15376;48.540;9.268;2023-03-16T11:02:47;97624.56;;;16.33;36.37
5283;BME280;15376;48.540;9.268;2023-03-16T11:07:49;97610.91;;;13.93;40.29
5283;BME280;15376;48.540;9.268;2023-03-16T11:10:44;97625.72;;;13.14;41.36
5283;BME280;15376;48.540;9.268;2023-03-16T11:13:15;97622.63;;;12.33;44.45
5283;BME280;15376;48.540;9.268;2023-03-16T11:16:01;97613.28;;;12.22;44.12
5283;BME280;15376;48.540;9.268;2023-03-16T11:18:31;97609.28;;;11.76;45.44
5283;BME280;15376;48.540;9.268;2023-03-16T11:21:39;97625.84;;;11.56;45.46
5283;BME280;15376;48.540;9.268;2023-03-16T11:27:21;97618.81;;;11.19;45.67
5283;BME280;15376;48.540;9.268;2023-03-16T11:32:35;97597.16;;;11.22;45.62
5283;BME280;15376;48.540;9.268;2023-03-16T11:35:01;97605.72;;;11.18;44.75
5283;BME280;15376;48.540;9.268;2023-03-16T11:41:08;97594.03;;;11.33;43.92
5283;BME280;15376;48.540;9.268;2023-03-16T11:51:34;97586.72;;;11.21;42.24
5283;BME280;15376;48.540;9.268;2023-03-16T11:54:29;97600.00;;;10.91;42.03
5283;BME280;15376;48.540;9.268;2023-03-16T11:57:07;97572.25;;;10.94;44.18
5283;BME280;15376;48.540;9.268;2023-03-16T12:07:50;97578.09;;;11.33;42.67
5283;BME280;15376;48.540;9.268;2023-03-16T12:10:29;97575.59;;;11.47;43.73
5283;BME280;15376;48.540;9.268;2023-03-16T12:13:33;97581.50;;;11.63;42.78
5283;BME280;15376;48.540;9.268;2023-03-16T12:19:23;97565.88;;;11.75;42.51
5283;BME280;15376;48.540;9.268;2023-03-16T12:22:40;97559.75;;;11.75;41.23
5283;BME280;15376;48.540;9.268;2023-03-16T12:24:47;97553.69;;;11.81;44.43
5283;BME280;15376;48.540;9.268;2023-03-16T12:27:34;97548.94;;;11.61;43.49
5283;BME280;15376;48.540;9.268;2023-03-16T12:49:04;97528.22;;;12.14;41.59
5283;BME280;15376;48.540;9.268;2023-03-16T12:51:36;97525.66;;;11.99;40.88
5283;BME280;15376;48.540;9.268;2023-03-16T12:54:02;97530.72;;;11.94;40.71
5283;BME280;15376;48.540;9.268;2023-03-16T12:56:33;97544.72;;;11.82;41.70
5283;BME280;15376;48.540;9.268;2023-03-16T12:59:02;97538.66;;;11.73;42.52
5283;BME280;15376;48.540;9.268;2023-03-16T13:01:37;97530.16;;;11.63;42.93
5283;BME280;15376;48.540;9.268;2023-03-16T13:04:30;97514.06;;;11.50;40.88
5283;BME280;15376;48.540;9.268;2023-03-16T13:07:02;97524.50;;;11.87;41.61
5283;BME280;15376;48.540;9.268;2023-03-16T13:09:29;97520.09;;;12.22;40.07
5283;BME280;15376;48.540;9.268;2023-03-16T13:11:57;97525.84;;;12.82;40.80
5283;BME280;15376;48.540;9.268;2023-03-16T13:14:38;97520.66;;;13.08;40.42
5283;BME280;15376;48.540;9.268;2023-03-16T13:17:21;97524.28;;;12.94;39.39
5283;BME280;15376;48.540;9.268;2023-03-16T13:22:46;97526.25;;;12.51;39.99
5283;BME280;15376;48.540;9.268;2023-03-16T13:25:15;97521.22;;;12.34;40.69
5283;BME280;15376;48.540;9.268;2023-03-16T13:27:45;97516.50;;;12.09;41.21
5283;BME280;15376;48.540;9.268;2023-03-16T13:30:24;97515.53;;;11.74;42.07
5283;BME280;15376;48.540;9.268;2023-03-16T13:32:54;97525.81;;;11.77;41.46
5283;BME280;15376;48.540;9.268;2023-03-16T13:35:25;97525.06;;;11.83;42.31
5283;BME280;15376;48.540;9.268;2023-03-16T13:37:51;97519.19;;;11.73;42.67
5283;BME280;15376;48.540;9.268;2023-03-16T13:40:24;97520.31;;;11.63;42.47
5283;BME280;15376;48.540;9.268;2023-03-16T13:42:51;97515.53;;;11.74;43.62
5283;BME280;15376;48.540;9.268;2023-03-16T13:45:26;97499.63;;;12.01;43.17
5283;BME280;15376;48.540;9.268;2023-03-16T13:47:52;97501.47;;;12.22;41.02
5283;BME280;15376;48.540;9.268;2023-03-16T13:50:18;97486.75;;;12.26;41.31
5283;BME280;15376;48.540;9.268;2023-03-16T13:52:57;97496.56;;;12.54;41.23
5283;BME280;15376;48.540;9.268;2023-03-16T13:55:36;97493.66;;;12.49;38.67
5283;BME280;15376;48.540;9.268;2023-03-16T13:58:03;97500.25;;;12.53;38.91
5283;BME280;15376;48.540;9.268;2023-03-16T14:00:36;97501.78;;;12.41;38.36
5283;BME280;15376;48.540;9.268;2023-03-16T14:03:35;97495.34;;;12.56;40.26
5283;BME280;15376;48.540;9.268;2023-03-16T14:06:02;97473.94;;;12.71;40.45
5283;BME280;15376;48.540;9.268;2023-03-16T14:08:29;97481.66;;;13.00;41.14
5283;BME280;15376;48.540;9.268;2023-03-16T14:10:56;97483.22;;;12.88;40.09
5283;BME280;15376;48.540;9.268;2023-03-16T14:13:30;97480.34;;;12.83;39.72
5283;BME280;15376;48.540;9.268;2023-03-16T14:16:10;97483.53;;;12.65;40.29
5283;BME280;15376;48.540;9.268;2023-03-16T14:18:42;97470.28;;;12.44;40.40
5283;BME280;15376;48.540;9.268;2023-03-16T14:21:14;97470.00;;;12.32;41.79
5283;BME280;15376;48.540;9.268;2023-03-16T14:23:43;97466.09;;;12.28;42.00